sensor_id;sensor_type;location;lat;lon;timestamp;temperature;humidity
46976;DHT22;32724;51.094;6.996;2023-07-29T00:01:09;18.50;99.90
46976;DHT22;32724;51.094;6.996;2023-07-29T00:03:34;18.60;99.90
46976;DHT22;32724;51.094;6.996;2023-07-29T00:06:00;18.50;99.90
46976;DHT22;32724;51.094;6.996;2023-07-29T00:08:25;18.50;99.90
46976;DHT22;32724;51.094;6.996;2023-07-29T00:10:51;18.60;99.90
46976;DHT22;32724;51.094;6.996;2023-07-29T00:13:17;18.50;99.90
46976;DHT22;32724;51.094;6.996;2023-07-29T00:15:42;18.60;99.90
46976;DHT22;32724;51.094;6.996;2023-07-29T00:18:08;18.50;99.90
46976;DHT22;32724;51.094;6.996;2023-07-29T00:20:34;18.50;99.90
46976;DHT22;32724;51.094;6.996;2023-07-29T00:22:59;18.50;99.90
46976;DHT22;32724;51.094;6.996;2023-07-29T00:25:25;18.60;99.90
46976;DHT22;32724;51.094;6.996;2023-07-29T00:27:50;18.50;99.90
46976;DHT22;32724;51.094;6.996;2023-07-29T00:30:16;18.50;99.90
46976;DHT22;32724;51.094;6.996;2023-07-29T00:32:42;18.50;99.90
46976;DHT22;32724;51.094;6.996;2023-07-29T00:35:07;18.50;99.90
46976;DHT22;32724;51.094;6.996;2023-07-29T00:37:33;18.50;99.90
46976;DHT22;32724;51.094;6.996;2023-07-29T00:39:59;18.50;99.90
46976;DHT22;32724;51.094;6.996;2023-07-29T00:42:24;18.50;99.90
46976;DHT22;32724;51.094;6.996;2023-07-29T00:44:50;18.50;99.90
46976;DHT22;32724;51.094;6.996;2023-07-29T00:47:16;18.50;99.90
46976;DHT22;32724;51.094;6.996;2023-07-29T00:49:43;18.50;99.90
46976;DHT22;32724;51.094;6.996;2023-07-29T00:52:10;18.50;99.90
46976;DHT22;32724;51.094;6.996;2023-07-29T00:54:38;18.50;99.90
46976;DHT22;32724;51.094;6.996;2023-07-29T00:57:04;18.50;99.90
46976;DHT22;32724;51.094;6.996;2023-07-29T00:59:31;18.50;99.90
46976;DHT22;32724;51.094;6.996;2023-07-29T01:01:57;18.50;99.90
46976;DHT22;32724;51.094;6.996;2023-07-29T01:04:23;18.50;99.90
46976;DHT22;32724;51.094;6.996;2023-07-29T01:07:12;18.50;99.90
46976;DHT22;32724;51.094;6.996;2023-07-29T01:10:02;18.50;99.90
46976;DHT22;32724;51.094;6.996;2023-07-29T01:15:18;18.50;99.90
46976;DHT22;32724;51.094;6.996;2023-07-29T01:17:52;18.40;99.90
46976;DHT22;32724;51.094;6.996;2023-07-29T01:20:20;18.40;99.90
46976;DHT22;32724;51.094;6.996;2023-07-29T01:22:46;18.40;99.90
46976;DHT22;32724;51.094;6.996;2023-07-29T01:25:12;18.40;99.90
46976;DHT22;32724;51.094;6.996;2023-07-29T01:27:38;18.40;99.90
46976;DHT22;32724;51.094;6.996;2023-07-29T01:30:04;18.40;99.90
46976;DHT22;32724;51.094;6.996;2023-07-29T01:32:43;18.40;99.90
46976;DHT22;32724;51.094;6.996;2023-07-29T01:35:33;18.30;99.90
46976;DHT22;32724;51.094;6.996;2023-07-29T01:38:24;18.40;99.90
46976;DHT22;32724;51.094;6.996;2023-07-29T01:40:54;18.30;99.90
46976;DHT22;32724;51.094;6.996;2023-07-29T01:43:20;18.30;99.90
46976;DHT22;32724;51.094;6.996;2023-07-29T01:45:49;18.30;99.90
46976;DHT22;32724;51.094;6.996;2023-07-29T01:48:14;18.40;99.90
46976;DHT22;32724;51.094;6.996;2023-07-29T01:50:40;18.30;99.90
46976;DHT22;32724;51.094;6.996;2023-07-29T01:53:06;18.30;99.90
46976;DHT22;32724;51.094;6.996;2023-07-29T01:55:31;18.40;99.90
46976;DHT22;32724;51.094;6.996;2023-07-29T01:57:57;18.40;99.90
46976;DHT22;32724;51.094;6.996;2023-07-29T02:00:23;18.40;99.90
46976;DHT22;32724;51.094;6.996;2023-07-29T02:02:49;18.40;99.90
46976;DHT22;32724;51.094;6.996;2023-07-29T02:05:15;18.40;99.90
46976;DHT22;32724;51.094;6.996;2023-07-29T02:07:40;18.30;99.90
46976;DHT22;32724;51.094;6.996;2023-07-29T02:10:06;18.30;99.90
46976;DHT22;32724;51.094;6.996;2023-07-29T02:12:32;18.30;99.90
46976;DHT22;32724;51.094;6.996;2023-07-29T02:14:58;18.30;99.90
46976;DHT22;32724;51.094;6.996;2023-07-29T02:17:23;18.30;99.90
46976;DHT22;32724;51.094;6.996;2023-07-29T02:19:49;18.30;99.90
46976;DHT22;32724;51.094;6.996;2023-07-29T02:22:17;18.30;99.90
46976;DHT22;32724;51.094;6.996;2023-07-29T02:24:43;18.40;99.90
46976;DHT22;32724;51.094;6.996;2023-07-29T02:27:09;18.40;99.90
46976;DHT22;32724;51.094;6.996;2023-07-29T02:29:34;18.30;99.90
46976;DHT22;32724;51.094;6.996;2023-07-29T02:32:00;18.30;99.90
46976;DHT22;32724;51.094;6.996;2023-07-29T02:34:26;18.30;99.90
46976;DHT22;32724;51.094;6.996;2023-07-29T02:36:51;18.20;99.90
46976;DHT22;32724;51.094;6.996;2023-07-29T02:39:17;18.30;99.90
46976;DHT22;32724;51.094;6.996;2023-07-29T02:41:43;18.30;99.90
46976;DHT22;32724;51.094;6.996;2023-07-29T02:44:08;18.30;99.90
46976;DHT22;32724;51.094;6.996;2023-07-29T02:46:34;18.30;99.90
46976;DHT22;32724;51.094;6.996;2023-07-29T02:48:59;18.40;99.90
46976;DHT22;32724;51.094;6.996;2023-07-29T02:51:25;18.40;99.90
46976;DHT22;32724;51.094;6.996;2023-07-29T02:53:50;18.40;99.90
46976;DHT22;32724;51.094;6.996;2023-07-29T02:56:16;18.40;99.90
46976;DHT22;32724;51.094;6.996;2023-07-29T02:58:41;18.40;99.90
46976;DHT22;32724;51.094;6.996;2023-07-29T03:01:07;18.40;99.90
46976;DHT22;32724;51.094;6.996;2023-07-29T03:03:33;18.40;99.90
46976;DHT22;32724;51.094;6.996;2023-07-29T03:08:25;18.40;99.90
46976;DHT22;32724;51.094;6.996;2023-07-29T03:10:50;18.40;99.90
46976;DHT22;32724;51.094;6.996;2023-07-29T03:13:16;18.40;99.90
46976;DHT22;32724;51.094;6.996;2023-07-29T03:15:41;18.50;99.90
46976;DHT22;32724;51.094;6.996;2023-07-29T03:18:07;18.50;99.90
46976;DHT22;32724;51.094;6.996;2023-07-29T03:20:32;18.50;99.90
46976;DHT22;32724;51.094;6.996;2023-07-29T03:22:58;18.50;99.90
46976;DHT22;32724;51.094;6.996;2023-07-29T03:25:23;18.50;99.90
46976;DHT22;32724;51.094;6.996;2023-07-29T03:27:49;18.50;99.90
46976;DHT22;32724;51.094;6.996;2023-07-29T03:30:15;18.50;99.90
46976;DHT22;32724;51.094;6.996;2023-07-29T03:32:43;18.60;99.90
46976;DHT22;32724;51.094;6.996;2023-07-29T03:35:10;18.60;99.90
46976;DHT22;32724;51.094;6.996;2023-07-29T03:37:36;18.60;99.90
46976;DHT22;32724;51.094;6.996;2023-07-29T03:40:02;18.50;99.90
46976;DHT22;32724;51.094;6.996;2023-07-29T03:42:28;18.50;99.90
46976;DHT22;32724;51.094;6.996;2023-07-29T03:44:54;18.50;99.90
46976;DHT22;32724;51.094;6.996;2023-07-29T03:47:19;18.40;99.90
46976;DHT22;32724;51.094;6.996;2023-07-29T03:49:45;18.40;99.90
46976;DHT22;32724;51.094;6.996;2023-07-29T03:52:10;18.40;99.90
46976;DHT22;32724;51.094;6.996;2023-07-29T03:54:36;18.30;99.90
46976;DHT22;32724;51.094;6.996;2023-07-29T03:57:02;18.30;99.90
46976;DHT22;32724;51.094;6.996;2023-07-29T03:59:27;18.40;99.90
46976;DHT22;32724;51.094;6.996;2023-07-29T04:01:53;18.40;99.90
46976;DHT22;32724;51.094;6.996;2023-07-29T04:04:19;18.40;99.90
46976;DHT22;32724;51.094;6.996;2023-07-29T04:06:44;18.40;99.90
46976;DHT22;32724;51.094;6.996;2023-07-29T04:09:10;18.40;99.90
46976;DHT22;32724;51.094;6.996;2023-07-29T04:11:36;18.40;99.90
46976;DHT22;32724;51.094;6.996;2023-07-29T04:14:01;18.40;99.90
46976;DHT22;32724;51.094;6.996;2023-07-29T04:16:27;18.40;99.90
46976;DHT22;32724;51.094;6.996;2023-07-29T04:18:53;18.40;99.90
46976;DHT22;32724;51.094;6.996;2023-07-29T04:21:19;18.40;99.90
46976;DHT22;32724;51.094;6.996;2023-07-29T04:23:45;18.40;99.90
46976;DHT22;32724;51.094;6.996;2023-07-29T04:26:11;18.50;99.90
46976;DHT22;32724;51.094;6.996;2023-07-29T04:28:36;18.50;99.90
46976;DHT22;32724;51.094;6.996;2023-07-29T04:31:02;18.50;99.90
46976;DHT22;32724;51.094;6.996;2023-07-29T04:33:29;18.50;99.90
46976;DHT22;32724;51.094;6.996;2023-07-29T04:35:55;18.50;99.90
46976;DHT22;32724;51.094;6.996;2023-07-29T04:38:20;18.50;99.90
46976;DHT22;32724;51.094;6.996;2023-07-29T04:40:48;18.50;99.90
46976;DHT22;32724;51.094;6.996;2023-07-29T04:43:14;18.50;99.90
46976;DHT22;32724;51.094;6.996;2023-07-29T04:45:43;18.50;99.90
46976;DHT22;32724;51.094;6.996;2023-07-29T04:48:09;18.50;99.90
46976;DHT22;32724;51.094;6.996;2023-07-29T04:50:34;18.40;99.90
46976;DHT22;32724;51.094;6.996;2023-07-29T04:53:00;18.40;99.90
46976;DHT22;32724;51.094;6.996;2023-07-29T04:55:25;18.40;99.90
46976;DHT22;32724;51.094;6.996;2023-07-29T04:57:51;18.40;99.90
46976;DHT22;32724;51.094;6.996;2023-07-29T05:00:17;18.40;99.90
46976;DHT22;32724;51.094;6.996;2023-07-29T05:02:42;18.40;99.90
46976;DHT22;32724;51.094;6.996;2023-07-29T05:05:08;18.50;99.90
46976;DHT22;32724;51.094;6.996;2023-07-29T05:07:34;18.50;99.90
46976;DHT22;32724;51.094;6.996;2023-07-29T05:09:59;18.60;99.90
46976;DHT22;32724;51.094;6.996;2023-07-29T05:12:25;18.70;99.90
46976;DHT22;32724;51.094;6.996;2023-07-29T05:14:50;18.70;99.90
46976;DHT22;32724;51.094;6.996;2023-07-29T05:17:16;18.80;99.90
46976;DHT22;32724;51.094;6.996;2023-07-29T05:19:42;18.80;99.90
46976;DHT22;32724;51.094;6.996;2023-07-29T05:22:07;18.90;99.90
46976;DHT22;32724;51.094;6.996;2023-07-29T05:24:33;18.90;99.90
46976;DHT22;32724;51.094;6.996;2023-07-29T05:26:58;18.90;99.90
46976;DHT22;32724;51.094;6.996;2023-07-29T05:29:24;19.00;99.90
46976;DHT22;32724;51.094;6.996;2023-07-29T05:31:49;18.90;99.90
46976;DHT22;32724;51.094;6.996;2023-07-29T05:34:15;18.80;99.90
46976;DHT22;32724;51.094;6.996;2023-07-29T05:36:40;18.80;99.90
46976;DHT22;32724;51.094;6.996;2023-07-29T05:39:06;18.80;99.90
46976;DHT22;32724;51.094;6.996;2023-07-29T05:41:32;18.90;99.90
46976;DHT22;32724;51.094;6.996;2023-07-29T05:43:58;18.80;99.90
46976;DHT22;32724;51.094;6.996;2023-07-29T05:46:23;18.90;99.90
46976;DHT22;32724;51.094;6.996;2023-07-29T05:48:49;18.90;99.90
46976;DHT22;32724;51.094;6.996;2023-07-29T05:51:14;18.90;99.90
46976;DHT22;32724;51.094;6.996;2023-07-29T05:53:40;18.90;99.90
46976;DHT22;32724;51.094;6.996;2023-07-29T05:56:06;18.90;99.90
46976;DHT22;32724;51.094;6.996;2023-07-29T05:58:31;18.90;99.90
46976;DHT22;32724;51.094;6.996;2023-07-29T06:00:57;18.90;99.90
46976;DHT22;32724;51.094;6.996;2023-07-29T06:03:23;18.90;99.90
46976;DHT22;32724;51.094;6.996;2023-07-29T06:05:49;18.90;99.90
46976;DHT22;32724;51.094;6.996;2023-07-29T06:08:15;18.90;99.90
46976;DHT22;32724;51.094;6.996;2023-07-29T06:10:41;18.90;99.90
46976;DHT22;32724;51.094;6.996;2023-07-29T06:13:06;19.00;99.90
46976;DHT22;32724;51.094;6.996;2023-07-29T06:15:32;19.00;99.90
46976;DHT22;32724;51.094;6.996;2023-07-29T06:17:57;19.00;99.90
46976;DHT22;32724;51.094;6.996;2023-07-29T06:20:23;19.10;99.90
46976;DHT22;32724;51.094;6.996;2023-07-29T06:22:49;19.10;99.90
46976;DHT22;32724;51.094;6.996;2023-07-29T06:25:14;19.10;99.90
46976;DHT22;32724;51.094;6.996;2023-07-29T06:27:40;19.10;99.90
46976;DHT22;32724;51.094;6.996;2023-07-29T06:30:06;19.10;99.90
46976;DHT22;32724;51.094;6.996;2023-07-29T06:32:32;19.00;99.90
46976;DHT22;32724;51.094;6.996;2023-07-29T06:34:57;19.00;99.90
46976;DHT22;32724;51.094;6.996;2023-07-29T06:37:23;18.90;99.90
46976;DHT22;32724;51.094;6.996;2023-07-29T06:39:48;18.90;99.90
46976;DHT22;32724;51.094;6.996;2023-07-29T06:42:14;18.90;99.90
46976;DHT22;32724;51.094;6.996;2023-07-29T06:44:40;18.70;99.90
46976;DHT22;32724;51.094;6.996;2023-07-29T06:47:06;18.60;99.90
46976;DHT22;32724;51.094;6.996;2023-07-29T06:49:31;18.50;99.90
46976;DHT22;32724;51.094;6.996;2023-07-29T06:51:57;18.40;99.90
46976;DHT22;32724;51.094;6.996;2023-07-29T06:54:26;18.40;99.90
46976;DHT22;32724;51.094;6.996;2023-07-29T06:56:52;18.40;99.90
46976;DHT22;32724;51.094;6.996;2023-07-29T06:59:17;18.40;99.90
46976;DHT22;32724;51.094;6.996;2023-07-29T07:01:43;18.50;99.90
46976;DHT22;32724;51.094;6.996;2023-07-29T07:04:09;18.50;99.90
46976;DHT22;32724;51.094;6.996;2023-07-29T07:06:34;18.60;99.90
46976;DHT22;32724;51.094;6.996;2023-07-29T07:09:00;18.70;99.90
46976;DHT22;32724;51.094;6.996;2023-07-29T07:11:26;18.70;99.90
46976;DHT22;32724;51.094;6.996;2023-07-29T07:13:51;18.90;99.90
46976;DHT22;32724;51.094;6.996;2023-07-29T07:16:17;19.10;99.90
46976;DHT22;32724;51.094;6.996;2023-07-29T07:18:43;19.30;99.90
46976;DHT22;32724;51.094;6.996;2023-07-29T07:21:09;19.40;99.90
46976;DHT22;32724;51.094;6.996;2023-07-29T07:23:34;19.80;99.90
46976;DHT22;32724;51.094;6.996;2023-07-29T07:26:00;20.10;99.90
46976;DHT22;32724;51.094;6.996;2023-07-29T07:28:25;20.40;99.90
46976;DHT22;32724;51.094;6.996;2023-07-29T07:30:51;20.80;99.90
46976;DHT22;32724;51.094;6.996;2023-07-29T07:33:16;21.40;99.90
46976;DHT22;32724;51.094;6.996;2023-07-29T07:35:42;21.40;99.90
46976;DHT22;32724;51.094;6.996;2023-07-29T07:38:08;21.50;99.90
46976;DHT22;32724;51.094;6.996;2023-07-29T07:40:35;21.40;99.90
46976;DHT22;32724;51.094;6.996;2023-07-29T07:43:01;21.40;99.90
46976;DHT22;32724;51.094;6.996;2023-07-29T07:45:27;21.40;99.90
46976;DHT22;32724;51.094;6.996;2023-07-29T07:47:52;21.30;99.90
46976;DHT22;32724;51.094;6.996;2023-07-29T07:50:21;21.20;99.90
46976;DHT22;32724;51.094;6.996;2023-07-29T07:52:47;21.10;99.90
46976;DHT22;32724;51.094;6.996;2023-07-29T07:55:12;21.20;99.90
46976;DHT22;32724;51.094;6.996;2023-07-29T07:57:38;21.00;99.90
46976;DHT22;32724;51.094;6.996;2023-07-29T08:00:04;21.00;99.90
46976;DHT22;32724;51.094;6.996;2023-07-29T08:02:30;21.20;99.90
46976;DHT22;32724;51.094;6.996;2023-07-29T08:04:55;21.30;99.90
46976;DHT22;32724;51.094;6.996;2023-07-29T08:07:21;21.10;99.90
46976;DHT22;32724;51.094;6.996;2023-07-29T08:09:46;21.00;99.90
46976;DHT22;32724;51.094;6.996;2023-07-29T08:12:12;21.10;99.90
46976;DHT22;32724;51.094;6.996;2023-07-29T08:14:38;21.10;99.90
46976;DHT22;32724;51.094;6.996;2023-07-29T08:17:03;21.30;99.90
46976;DHT22;32724;51.094;6.996;2023-07-29T08:19:29;21.20;99.90
46976;DHT22;32724;51.094;6.996;2023-07-29T08:21:55;21.10;99.90
46976;DHT22;32724;51.094;6.996;2023-07-29T08:24:20;21.10;99.90
46976;DHT22;32724;51.094;6.996;2023-07-29T08:26:46;21.00;99.90
46976;DHT22;32724;51.094;6.996;2023-07-29T08:29:11;21.20;99.90
46976;DHT22;32724;51.094;6.996;2023-07-29T08:31:37;21.20;99.90
46976;DHT22;32724;51.094;6.996;2023-07-29T08:34:03;21.20;99.90
46976;DHT22;32724;51.094;6.996;2023-07-29T08:36:28;21.20;99.90
46976;DHT22;32724;51.094;6.996;2023-07-29T08:38:54;21.30;99.90
46976;DHT22;32724;51.094;6.996;2023-07-29T08:41:29;21.60;99.90
46976;DHT22;32724;51.094;6.996;2023-07-29T08:44:12;21.70;99.90
46976;DHT22;32724;51.094;6.996;2023-07-29T08:46:42;21.80;99.90
46976;DHT22;32724;51.094;6.996;2023-07-29T08:49:08;21.90;99.90
46976;DHT22;32724;51.094;6.996;2023-07-29T08:51:35;22.00;99.90
46976;DHT22;32724;51.094;6.996;2023-07-29T08:54:01;21.90;99.90
46976;DHT22;32724;51.094;6.996;2023-07-29T08:56:27;22.00;99.90
46976;DHT22;32724;51.094;6.996;2023-07-29T08:58:53;22.30;99.90
46976;DHT22;32724;51.094;6.996;2023-07-29T09:01:19;22.60;99.90
46976;DHT22;32724;51.094;6.996;2023-07-29T09:03:45;22.60;99.90
46976;DHT22;32724;51.094;6.996;2023-07-29T09:06:11;22.70;99.90
46976;DHT22;32724;51.094;6.996;2023-07-29T09:08:37;22.90;99.90
46976;DHT22;32724;51.094;6.996;2023-07-29T09:11:03;23.10;99.90
46976;DHT22;32724;51.094;6.996;2023-07-29T09:13:28;23.20;99.90
46976;DHT22;32724;51.094;6.996;2023-07-29T09:15:55;23.20;99.90
46976;DHT22;32724;51.094;6.996;2023-07-29T09:18:26;23.20;99.90
46976;DHT22;32724;51.094;6.996;2023-07-29T09:20:53;23.10;99.90
46976;DHT22;32724;51.094;6.996;2023-07-29T09:23:18;23.00;99.90
46976;DHT22;32724;51.094;6.996;2023-07-29T09:25:46;23.00;99.90
46976;DHT22;32724;51.094;6.996;2023-07-29T09:28:15;23.30;99.90
46976;DHT22;32724;51.094;6.996;2023-07-29T09:30:44;23.60;99.90
46976;DHT22;32724;51.094;6.996;2023-07-29T09:33:10;23.60;99.90
46976;DHT22;32724;51.094;6.996;2023-07-29T09:35:37;23.60;99.90
46976;DHT22;32724;51.094;6.996;2023-07-29T09:38:04;23.30;99.90
46976;DHT22;32724;51.094;6.996;2023-07-29T09:40:40;23.10;99.90
46976;DHT22;32724;51.094;6.996;2023-07-29T09:43:07;23.40;99.90
46976;DHT22;32724;51.094;6.996;2023-07-29T09:45:34;23.50;99.90
46976;DHT22;32724;51.094;6.996;2023-07-29T09:48:01;23.70;99.90
46976;DHT22;32724;51.094;6.996;2023-07-29T09:50:27;23.90;99.90
46976;DHT22;32724;51.094;6.996;2023-07-29T09:52:54;24.40;99.90
46976;DHT22;32724;51.094;6.996;2023-07-29T09:55:24;24.50;99.90
46976;DHT22;32724;51.094;6.996;2023-07-29T09:57:56;24.30;99.90
46976;DHT22;32724;51.094;6.996;2023-07-29T10:00:23;24.30;99.90
46976;DHT22;32724;51.094;6.996;2023-07-29T10:02:49;24.30;99.90
46976;DHT22;32724;51.094;6.996;2023-07-29T10:05:15;24.50;99.90
46976;DHT22;32724;51.094;6.996;2023-07-29T10:07:41;24.70;99.90
46976;DHT22;32724;51.094;6.996;2023-07-29T10:10:08;24.50;99.90
46976;DHT22;32724;51.094;6.996;2023-07-29T10:12:35;24.10;99.90
46976;DHT22;32724;51.094;6.996;2023-07-29T10:15:05;23.90;99.90
46976;DHT22;32724;51.094;6.996;2023-07-29T10:17:36;23.60;99.90
46976;DHT22;32724;51.094;6.996;2023-07-29T10:20:04;23.70;99.90
46976;DHT22;32724;51.094;6.996;2023-07-29T10:22:35;23.80;99.90
46976;DHT22;32724;51.094;6.996;2023-07-29T10:25:04;23.90;99.90
46976;DHT22;32724;51.094;6.996;2023-07-29T10:27:41;24.20;99.90
46976;DHT22;32724;51.094;6.996;2023-07-29T10:30:09;24.20;99.90
46976;DHT22;32724;51.094;6.996;2023-07-29T10:32:36;24.10;99.90
46976;DHT22;32724;51.094;6.996;2023-07-29T10:35:02;23.80;99.90
46976;DHT22;32724;51.094;6.996;2023-07-29T10:37:27;23.20;99.90
46976;DHT22;32724;51.094;6.996;2023-07-29T10:39:56;23.00;99.90
46976;DHT22;32724;51.094;6.996;2023-07-29T10:42:22;22.80;99.90
46976;DHT22;32724;51.094;6.996;2023-07-29T10:44:49;22.60;99.90
46976;DHT22;32724;51.094;6.996;2023-07-29T10:47:17;22.50;99.90
46976;DHT22;32724;51.094;6.996;2023-07-29T10:49:43;22.40;99.90
46976;DHT22;32724;51.094;6.996;2023-07-29T10:52:13;22.30;99.90
46976;DHT22;32724;51.094;6.996;2023-07-29T10:54:46;22.20;99.90
46976;DHT22;32724;51.094;6.996;2023-07-29T10:57:17;22.10;99.90
46976;DHT22;32724;51.094;6.996;2023-07-29T10:59:56;22.30;99.90
46976;DHT22;32724;51.094;6.996;2023-07-29T11:02:29;22.60;99.90
46976;DHT22;32724;51.094;6.996;2023-07-29T11:04:55;22.70;99.90
46976;DHT22;32724;51.094;6.996;2023-07-29T11:07:25;22.90;99.90
46976;DHT22;32724;51.094;6.996;2023-07-29T11:09:56;23.10;99.90
46976;DHT22;32724;51.094;6.996;2023-07-29T11:12:51;23.30;99.90
46976;DHT22;32724;51.094;6.996;2023-07-29T11:15:24;23.40;99.90
46976;DHT22;32724;51.094;6.996;2023-07-29T11:17:54;23.40;99.90
46976;DHT22;32724;51.094;6.996;2023-07-29T11:20:24;23.40;99.90
46976;DHT22;32724;51.094;6.996;2023-07-29T11:22:50;23.50;99.90
46976;DHT22;32724;51.094;6.996;2023-07-29T11:25:17;23.50;99.90
46976;DHT22;32724;51.094;6.996;2023-07-29T11:27:43;23.80;99.90
46976;DHT22;32724;51.094;6.996;2023-07-29T11:30:11;24.00;99.90
46976;DHT22;32724;51.094;6.996;2023-07-29T11:32:37;24.20;99.90
46976;DHT22;32724;51.094;6.996;2023-07-29T11:35:09;24.20;99.90
46976;DHT22;32724;51.094;6.996;2023-07-29T11:37:42;24.70;99.90
46976;DHT22;32724;51.094;6.996;2023-07-29T11:40:08;25.20;99.90
46976;DHT22;32724;51.094;6.996;2023-07-29T11:42:37;25.10;99.90
46976;DHT22;32724;51.094;6.996;2023-07-29T11:45:04;24.70;99.90
46976;DHT22;32724;51.094;6.996;2023-07-29T11:47:34;24.80;99.90
46976;DHT22;32724;51.094;6.996;2023-07-29T11:50:04;24.90;99.90
46976;DHT22;32724;51.094;6.996;2023-07-29T11:52:35;25.00;99.90
46976;DHT22;32724;51.094;6.996;2023-07-29T11:55:02;24.70;99.90
46976;DHT22;32724;51.094;6.996;2023-07-29T11:57:36;24.50;99.90
46976;DHT22;32724;51.094;6.996;2023-07-29T12:00:03;24.10;99.90
46976;DHT22;32724;51.094;6.996;2023-07-29T12:02:30;24.10;99.90
46976;DHT22;32724;51.094;6.996;2023-07-29T12:04:56;24.30;99.90
46976;DHT22;32724;51.094;6.996;2023-07-29T12:07:22;24.60;99.90
46976;DHT22;32724;51.094;6.996;2023-07-29T12:09:49;24.90;99.90
46976;DHT22;32724;51.094;6.996;2023-07-29T12:12:15;25.20;99.90
46976;DHT22;32724;51.094;6.996;2023-07-29T12:14:44;25.30;99.90
46976;DHT22;32724;51.094;6.996;2023-07-29T12:17:10;25.40;99.90
46976;DHT22;32724;51.094;6.996;2023-07-29T12:19:37;25.20;99.90
46976;DHT22;32724;51.094;6.996;2023-07-29T12:22:05;25.10;99.90
46976;DHT22;32724;51.094;6.996;2023-07-29T12:24:38;25.00;99.90
46976;DHT22;32724;51.094;6.996;2023-07-29T12:27:04;24.90;99.90
46976;DHT22;32724;51.094;6.996;2023-07-29T12:29:30;24.80;99.90
46976;DHT22;32724;51.094;6.996;2023-07-29T12:32:00;25.20;99.90
46976;DHT22;32724;51.094;6.996;2023-07-29T12:34:27;25.20;99.90
46976;DHT22;32724;51.094;6.996;2023-07-29T12:36:57;25.00;99.90
46976;DHT22;32724;51.094;6.996;2023-07-29T12:39:27;24.90;99.90
46976;DHT22;32724;51.094;6.996;2023-07-29T12:41:59;24.90;99.90
46976;DHT22;32724;51.094;6.996;2023-07-29T12:44:36;24.80;99.90
46976;DHT22;32724;51.094;6.996;2023-07-29T12:47:03;24.60;99.90
46976;DHT22;32724;51.094;6.996;2023-07-29T12:49:30;24.60;99.90
46976;DHT22;32724;51.094;6.996;2023-07-29T12:51:59;24.40;99.90
46976;DHT22;32724;51.094;6.996;2023-07-29T12:54:24;24.30;99.90
46976;DHT22;32724;51.094;6.996;2023-07-29T12:56:50;24.30;99.90
46976;DHT22;32724;51.094;6.996;2023-07-29T12:59:16;24.40;99.90
46976;DHT22;32724;51.094;6.996;2023-07-29T13:01:41;24.70;99.90
46976;DHT22;32724;51.094;6.996;2023-07-29T13:04:07;24.60;99.90
46976;DHT22;32724;51.094;6.996;2023-07-29T13:06:33;24.70;99.90
46976;DHT22;32724;51.094;6.996;2023-07-29T13:08:58;24.70;99.90
46976;DHT22;32724;51.094;6.996;2023-07-29T13:11:24;24.70;99.90
46976;DHT22;32724;51.094;6.996;2023-07-29T13:13:49;24.50;99.90
46976;DHT22;32724;51.094;6.996;2023-07-29T13:16:15;24.10;99.90
46976;DHT22;32724;51.094;6.996;2023-07-29T13:18:41;24.10;99.90
46976;DHT22;32724;51.094;6.996;2023-07-29T13:21:08;24.10;99.90
46976;DHT22;32724;51.094;6.996;2023-07-29T13:23:33;24.10;99.90
46976;DHT22;32724;51.094;6.996;2023-07-29T13:25:59;24.10;99.90
46976;DHT22;32724;51.094;6.996;2023-07-29T13:28:25;24.00;99.90
46976;DHT22;32724;51.094;6.996;2023-07-29T13:30:50;23.90;99.90
46976;DHT22;32724;51.094;6.996;2023-07-29T13:33:16;23.70;99.90
46976;DHT22;32724;51.094;6.996;2023-07-29T13:35:42;23.70;99.90
46976;DHT22;32724;51.094;6.996;2023-07-29T13:38:07;23.70;99.90
46976;DHT22;32724;51.094;6.996;2023-07-29T13:40:34;23.40;99.90
46976;DHT22;32724;51.094;6.996;2023-07-29T13:42:59;23.30;99.90
46976;DHT22;32724;51.094;6.996;2023-07-29T13:45:25;23.10;99.90
46976;DHT22;32724;51.094;6.996;2023-07-29T13:47:50;23.00;99.90
46976;DHT22;32724;51.094;6.996;2023-07-29T13:50:19;22.80;99.90
46976;DHT22;32724;51.094;6.996;2023-07-29T13:52:44;22.80;99.90
46976;DHT22;32724;51.094;6.996;2023-07-29T13:55:10;22.70;99.90
46976;DHT22;32724;51.094;6.996;2023-07-29T13:57:37;22.80;99.90
46976;DHT22;32724;51.094;6.996;2023-07-29T14:00:02;22.70;99.90
46976;DHT22;32724;51.094;6.996;2023-07-29T14:02:28;22.70;99.90
46976;DHT22;32724;51.094;6.996;2023-07-29T14:04:56;22.50;99.90
46976;DHT22;32724;51.094;6.996;2023-07-29T14:07:21;22.10;99.90
46976;DHT22;32724;51.094;6.996;2023-07-29T14:09:47;21.70;99.90
46976;DHT22;32724;51.094;6.996;2023-07-29T14:12:12;21.30;99.90
46976;DHT22;32724;51.094;6.996;2023-07-29T14:14:40;21.10;99.90
46976;DHT22;32724;51.094;6.996;2023-07-29T14:17:06;21.10;99.90
46976;DHT22;32724;51.094;6.996;2023-07-29T14:19:32;21.00;99.90
46976;DHT22;32724;51.094;6.996;2023-07-29T14:21:58;21.10;99.90
46976;DHT22;32724;51.094;6.996;2023-07-29T14:24:23;21.40;99.90
46976;DHT22;32724;51.094;6.996;2023-07-29T14:26:49;21.60;99.90
46976;DHT22;32724;51.094;6.996;2023-07-29T14:29:14;21.60;99.90
46976;DHT22;32724;51.094;6.996;2023-07-29T14:31:40;21.50;99.90
46976;DHT22;32724;51.094;6.996;2023-07-29T14:34:06;21.50;99.90
46976;DHT22;32724;51.094;6.996;2023-07-29T14:36:31;21.70;99.90
46976;DHT22;32724;51.094;6.996;2023-07-29T14:38:57;21.90;99.90
46976;DHT22;32724;51.094;6.996;2023-07-29T14:41:22;22.20;99.90
46976;DHT22;32724;51.094;6.996;2023-07-29T14:43:48;22.50;99.90
46976;DHT22;32724;51.094;6.996;2023-07-29T14:46:13;22.60;99.90
46976;DHT22;32724;51.094;6.996;2023-07-29T14:48:39;22.80;99.90
46976;DHT22;32724;51.094;6.996;2023-07-29T14:51:04;22.70;99.90
46976;DHT22;32724;51.094;6.996;2023-07-29T14:53:30;22.80;99.90
46976;DHT22;32724;51.094;6.996;2023-07-29T14:55:55;22.60;99.90
46976;DHT22;32724;51.094;6.996;2023-07-29T14:58:22;22.60;99.90
46976;DHT22;32724;51.094;6.996;2023-07-29T15:00:49;22.50;99.90
46976;DHT22;32724;51.094;6.996;2023-07-29T15:03:14;22.40;99.90
46976;DHT22;32724;51.094;6.996;2023-07-29T15:05:40;22.40;99.90
46976;DHT22;32724;51.094;6.996;2023-07-29T15:10:33;22.60;99.90
46976;DHT22;32724;51.094;6.996;2023-07-29T15:12:59;22.70;99.90
46976;DHT22;32724;51.094;6.996;2023-07-29T15:15:24;22.60;99.90
46976;DHT22;32724;51.094;6.996;2023-07-29T15:17:50;22.60;99.90
46976;DHT22;32724;51.094;6.996;2023-07-29T15:20:16;22.70;99.90
46976;DHT22;32724;51.094;6.996;2023-07-29T15:22:41;22.80;99.90
46976;DHT22;32724;51.094;6.996;2023-07-29T15:25:09;23.00;99.90
46976;DHT22;32724;51.094;6.996;2023-07-29T15:27:34;23.20;99.90
46976;DHT22;32724;51.094;6.996;2023-07-29T15:30:00;23.30;99.90
46976;DHT22;32724;51.094;6.996;2023-07-29T15:32:26;23.20;99.90
46976;DHT22;32724;51.094;6.996;2023-07-29T15:34:53;23.20;99.90